Weather observations for the past three days for
Sterling Municipal Airport
Metric (Imperial)
Date Time (mdt) Wind (kph) Vis. (km) Weather Sky Cond. Temperature (ºC) Relative Humidity Wind Chill (°C) Heat Index (°C) Pressure Precipitation (cm)
Air Dwpt 6 hour altimeter (cm) sea level (mb) 1 hr 3 hr 6 hr
Max. Min.
04 05:15 SE 7 16.09 Fair CLR 1 -1 87% -1 75.57 0.0
04 04:55 Calm 16.09 Fair CLR 2 0 87% 75.57 0.0
04 04:35 Calm 16.09 Fair CLR 2 0 87% 75.59 0.0
04 04:15 SE 6 16.09 Fair CLR 3 0 81% 75.57 0.0
04 03:55 Calm 16.09 Fair CLR 3 0 81% 75.57 0.0
04 03:35 Calm 16.09 Fair CLR 4 0 75% 75.57 0.0
04 03:15 Calm 16.09 Fair CLR 4 0 75% 75.59 0.0
04 02:55 Calm 16.09 Fair CLR 5 0 70% 75.59 0.0
04 02:35 Calm 16.09 Fair CLR 5 0 70% 75.62 0.0
04 02:15 Calm 16.09 Fair CLR 6 1 71% 75.64 0.0
04 01:55 N 7 16.09 Fair CLR 6 1 71% 5 75.64 0.0
04 01:35 Calm 16.09 Fair CLR 6 1 71% 75.67 0.0
04 01:15 N 11 16.09 Fair CLR 7 1 66% 5 75.67 0.0
04 00:55 N 11 16.09 Fair CLR 7 2 71% 5 75.69 0.0
04 00:35 N 11 16.09 Fair CLR 8 2 66% 6 75.69 0.0
04 00:15 N 11 16.09 Fair CLR 10 2 58% 9 75.69 0.0
03 23:55 N 11 16.09 Fair CLR 10 1 54% 9 75.69 0.0
03 23:35 N 9 16.09 Fair CLR 12 2 51% 75.69 0.0
03 23:15 N 11 16.09 Fair CLR 13 2 47% 75.69 0.0
03 22:55 N 11 16.09 Fair CLR 14 2 44% 75.74 0.0
03 22:35 N 11 16.09 Fair CLR 14 1 41% 75.77 0.0
03 22:15 NE 13 16.09 Fair CLR 15 1 39% 75.77 0.0
03 21:55 NE 17 G 26 16.09 Partly Cloudy SCT120 16 1 36% 75.79 0.0
03 21:35 N 17 16.09 Partly Cloudy SCT120 16 0 34% 75.82 0.0
03 21:15 N 13 16.09 Fair CLR 15 0 36% 75.77 0.0
03 20:55 N 7 16.09 Fair CLR 16 0 34% 75.72 0.0
03 20:35 E 6 16.09 Fair CLR 17 -1 30% 75.69 0.0
03 20:15 E 6 16.09 Fair CLR 18 -1 28% 75.67 0.0
03 19:55 NE 7 16.09 Fair CLR 19 -1 26% 75.67 0.0
03 19:35 NE 6 16.09 Fair CLR 20 -1 24% 75.67 0.0
03 19:15 Calm 16.09 Fair CLR 20 -1 24% 75.67 0.0
03 18:55 N 9 16.09 Fair CLR 21 -1 23% 75.69 0.0
03 18:35 NE 9 16.09 Fair CLR 22 -2 20% 75.69 0.0
03 18:15 E 7 16.09 Fair CLR 23 -2 19% 75.69 0.0
03 17:55 NE 6 16.09 Fair CLR 22 -2 20% 75.72 0.0
03 17:35 N 6 16.09 Fair CLR 24 -2 18% 24 75.72 0.0
03 17:15 NW 7 16.09 Fair CLR 25 -2 17% 25 75.74 0.0
03 16:55 NW 7 16.09 Fair CLR 25 -2 17% 25 75.77 0.0
03 16:35 N 9 16.09 Fair CLR 25 -2 17% 25 75.77 0.0
03 16:15 NW 11 16.09 Fair CLR 24 -2 18% 24 75.79 0.0
03 15:55 NW 9 16.09 Fair CLR 23 -2 19% 75.82 0.0
03 15:35 NW 11 16.09 Fair CLR 23 -2 19% 75.84 0.0
03 15:15 NE 9 16.09 Fair CLR 23 -2 19% 75.87 0.0
03 14:55 N 6 16.09 Fair CLR 23 -2 19% 75.9 0.0
03 14:35 NE 6 16.09 Fair CLR 23 -1 20% 75.92 0.0
03 14:15 Calm 16.09 Fair CLR 25 -1 18% 25 75.92 0.0
03 13:55 NE 9 16.09 Fair CLR 23 -1 20% 75.95 0.0
03 13:35 N 13 16.09 Fair CLR 24 -1 19% 24 75.95 0.0
03 13:15 N 11 G 26 16.09 Fair CLR 22 -1 22% 75.97 0.0
03 12:55 NE 11 16.09 Fair CLR 23 -1 20% 76 0.0
03 12:35 NE 13 16.09 Fair CLR 22 -1 22% 76.05 0.0
03 12:15 NE 7 16.09 Fair CLR 21 -1 23% 76.07 0.0
03 11:55 NE 11 16.09 Fair CLR 21 -1 23% 76.07 0.0
03 11:35 N 13 16.09 Fair CLR 21 -1 23% 76.1 0.0
03 11:15 NE 13 16.09 Fair CLR 20 0 26% 76.12 0.0
03 10:55 E 15 16.09 Fair CLR 19 0 28% 76.15 0.0
03 10:35 NE 15 16.09 Fair CLR 18 0 30% 76.17 0.0
03 10:15 NE 13 G 28 16.09 Fair CLR 18 0 30% 76.17 0.0
03 09:55 NE 15 16.09 Fair CLR 17 0 32% 76.2 0.0
03 09:35 N 17 G 26 16.09 Fair CLR 16 0 34% 76.2 0.0
03 09:15 N 19 16.09 Fair CLR 15 0 36% 76.2 0.0
03 08:55 NE 11 16.09 Fair CLR 13 -2 36% 76.2 0.0
03 08:35 N 17 16.09 Fair CLR 12 0 44% 76.2 0.0
03 08:15 NE 13 16.09 Fair CLR 11 -2 41% 76.2 0.0
03 07:55 N 11 16.09 Fair CLR 10 -3 40% 9 76.2 0.0
03 07:35 N 9 16.09 Fair CLR 8 -5 40% 7 76.2 0.0
03 07:15 NW 6 16.09 Fair CLR 7 -2 53% 76.17 0.0
03 06:55 Calm 16.09 Fair CLR 5 -1 66% 76.15 0.0
03 06:35 Calm 16.09 Fair CLR 2 -2 75% 76.1 0.0
03 06:15 Calm 16.09 Fair CLR 3 -2 70% 76.07 0.0
03 05:55 S 6 16.09 Fair CLR 3 -2 70% 76.07 0.0
03 05:35 SE 6 16.09 Fair CLR 3 -2 70% 76.07 0.0
03 05:15 SW 7 16.09 Fair CLR 3 -2 70% 1 76.07 0.0
03 04:55 SE 9 16.09 Fair CLR 4 -1 70% 2 76.07 0.0
03 04:35 Calm 16.09 Fair CLR 1 -2 81% 76.07 0.0
03 04:15 Calm 16.09 Fair CLR 3 -2 70% 76.07 0.0
03 03:55 N 7 16.09 Fair CLR 5 -2 61% 4 76.1 0.0
03 03:35 NE 9 16.09 Fair CLR 5 -2 61% 3 76.1 0.0
03 03:15 N 13 16.09 Fair CLR 4 -2 65% 1 76.1 0.0
03 02:55 SE 11 16.09 Fair CLR 3 -2 70% 0 76.1 0.0
03 02:35 SE 11 16.09 Fair CLR 3 -2 70% 0 76.1 0.0
03 02:15 S 13 16.09 Fair CLR 4 -2 65% 1 76.1 0.0
03 01:55 S 13 16.09 Fair CLR 4 -3 61% 1 76.12 0.0
03 01:35 S 7 16.09 Fair CLR 5 -3 57% 4 76.15 0.0
03 01:15 SE 6 16.09 Fair CLR 5 -3 57% 76.15 0.0
03 00:55 S 7 16.09 Fair CLR 6 -3 53% 5 76.15 0.0
03 00:35 S 9 16.09 Fair CLR 7 -3 49% 5 76.15 0.0
03 00:15 S 7 16.09 Fair CLR 8 -3 46% 7 76.15 0.0
02 23:55 S 6 16.09 Fair CLR 8 -5 40% 76.17 0.0
02 23:35 Calm 16.09 Fair CLR 8 -5 40% 76.17 0.0
02 23:15 Calm 16.09 Fair CLR 8 -5 40% 76.17 0.0
02 22:55 Calm 16.09 Fair CLR 7 -4 46% 76.15 0.0
02 22:35 S 7 16.09 Fair CLR 9 -6 34% 8 76.15 0.0
02 22:15 S 7 16.09 Fair CLR 10 -5 35% 9 76.15 0.0
02 21:55 S 7 16.09 Fair CLR 10 -4 37% 9 76.15 0.0
02 21:35 S 7 16.09 Fair CLR 11 -6 30% 76.15 0.0
02 21:15 Calm 16.09 Fair CLR 11 -5 32% 76.12 0.0
02 20:55 S 9 16.09 Fair CLR 12 -5 30% 76.12 0.0
02 20:35 S 13 16.09 Fair CLR 12 -3 35% 76.12 0.0
02 20:15 S 13 16.09 Fair CLR 15 -5 25% 76.1 0.0
02 19:55 S 13 16.09 Fair CLR 16 -5 23% 76.07 0.0
02 19:35 S 15 16.09 Fair CLR 19 -5 19% 76.07 0.0
02 19:15 S 17 16.09 Fair CLR 21 -6 16% 76.07 0.0
02 18:55 S 19 16.09 Fair CLR 22 -7 14% 76.07 0.0
02 18:35 S 26 16.09 Fair CLR 23 -7 13% 76.07 0.0
02 18:15 S 28 G 35 16.09 Fair CLR 23 -7 13% 76.1 0.0
02 17:55 SE 17 16.09 Fair CLR 23 -7 13% 76.12 0.0
02 17:35 S 17 16.09 Fair CLR 24 -8 11% 24 76.12 0.0
02 17:15 S 15 G 28 16.09 Fair CLR 24 -8 11% 24 76.15 0.0
02 16:55 S 13 16.09 Fair CLR 24 -8 11% 24 76.15 0.0
02 16:35 SW 11 16.09 Fair CLR 24 -8 11% 24 76.17 0.0
02 16:15 S 7 16.09 Fair CLR 23 -9 11% 76.2 0.0
02 15:55 W 15 16.09 Fair CLR 23 -8 12% 76.23 0.0
02 15:35 SE 9 16.09 Fair CLR 23 -7 13% 76.25 0.0
02 15:15 W 11 G 26 16.09 Fair CLR 23 -7 13% 76.28 0.0
02 14:55 S 19 G 28 16.09 Fair CLR 23 -6 14% 76.3 0.0
02 14:35 S 19 G 28 16.09 Fair CLR 23 -6 14% 76.33 0.0
02 14:15 SW 19 G 28 16.09 Fair CLR 23 -5 15% 76.35 0.0
02 13:55 S 13 16.09 Fair CLR 22 -5 16% 76.35 0.0
02 13:35 SW 15 G 31 16.09 Fair CLR 21 -5 17% 76.38 0.0
02 13:15 W 9 16.09 Fair CLR 22 -6 15% 76.4 0.0
02 12:55 N 7 16.09 Fair CLR 21 -5 17% 76.43 0.0
02 12:35 Calm 16.09 Fair CLR 21 -5 17% 76.45 0.0
02 12:15 W 11 G 26 16.09 Fair CLR 20 -5 18% 76.48 0.0
02 11:55 SW 17 16.09 Fair CLR 20 -4 20% 76.5 0.0
02 11:35 W 13 16.09 Fair CLR 18 -2 26% 76.53 0.0
02 11:15 SW 7 16.09 Fair CLR 17 -2 27% 76.56 0.0
02 10:55 S 11 16.09 Fair CLR 17 -1 30% 76.56 0.0
02 10:35 S 9 16.09 Fair CLR 16 0 34% 76.58 0.0
02 10:15 SW 11 16.09 Fair CLR 13 0 41% 76.58 0.0
02 09:55 S 9 16.09 Fair CLR 12 0 44% 76.61 0.0
02 09:35 S 9 16.09 Fair CLR 11 0 47% 76.61 0.0
02 09:15 S 7 16.09 Fair CLR 9 0 54% 8 76.61 0.0
02 08:55 SW 11 16.09 Fair CLR 8 0 57% 6 76.63 0.0
02 08:35 SW 11 16.09 Fair CLR 7 0 61% 5 76.63 0.0
02 08:15 S 7 16.09 Fair CLR 6 0 66% 5 76.63 0.0
02 07:55 SE 9 16.09 Fair CLR 5 0 70% 3 76.63 0.0
02 07:35 Calm 16.09 Fair CLR 5 0 70% 76.63 0.0
02 07:15 Calm 16.09 Fair CLR 3 -1 75% 76.63 0.0
02 06:55 Calm 16.09 Fair CLR 1 -2 81% 76.63 0.0
02 06:35 Calm 16.09 Fair CLR 0 -3 80% 76.63 0.0
02 06:15 Calm 16.09 Fair CLR -1 -4 80% 76.61 0.0
02 05:55 Calm 16.09 Fair CLR -2 -3 93% 76.61 0.0
02 05:35 Calm 16.09 Fair CLR -1 -3 86% 76.61 0.0
02 05:15 NW 7 16.09 Fair CLR 1 -3 75% -1 76.61 0.0
02 04:55 Calm 16.09 Fair CLR 0 -3 80% 76.61 0.0
02 04:35 Calm 16.09 Fair CLR 0 -2 87% 76.61 0.0
02 04:15 N 7 16.09 Fair CLR 1 -2 81% -1 76.61 0.0
02 03:55 N 7 16.09 Fair CLR 1 -2 81% -1 76.61 0.0
02 03:35 N 7 16.09 Fair CLR 1 -2 81% -1 76.61 0.0
02 03:15 Calm 16.09 Fair CLR 3 -2 70% 76.61 0.0
02 02:55 NE 7 16.09 Fair CLR 5 -2 61% 4 76.61 0.0
02 02:35 NE 7 16.09 Fair CLR 5 -2 61% 4 76.61 0.0
02 02:15 E 9 16.09 Fair CLR 6 -2 57% 4 76.63 0.0
02 01:55 Calm 16.09 Fair CLR 6 -2 57% 76.63 0.0
02 01:35 NE 9 16.09 Fair CLR 7 -2 53% 5 76.63 0.0
02 01:15 NE 7 16.09 Fair CLR 7 -2 53% 6 76.63 0.0
02 00:55 NE 6 16.09 Fair CLR 7 -2 53% 76.63 0.0
02 00:35 NE 6 16.09 Fair CLR 7 -2 53% 76.63 0.0
02 00:15 NE 7 16.09 Fair CLR 7 -2 53% 6 76.63 0.0
01 23:55 NE 11 16.09 Fair CLR 7 -2 53% 5 76.61 0.0
01 23:35 E 15 16.09 Fair CLR 8 -2 50% 6 76.58 0.0
01 23:15 E 15 16.09 Fair CLR 8 -2 50% 6 76.56 0.0
01 22:55 NE 15 16.09 Fair CLR 8 -2 50% 6 76.56 0.0
01 22:35 NE 7 16.09 Fair CLR 8 -2 50% 7 76.56 0.0
01 22:15 NE 13 G 26 16.09 Fair CLR 9 -3 43% 7 76.53 0.0
01 21:55 NE 13 16.09 Fair CLR 9 -3 43% 7 76.53 0.0
01 21:35 N 15 16.09 Fair CLR 8 -3 46% 6 76.48 0.0
01 21:15 Calm 16.09 Fair CLR 9 -5 37% 76.43 0.0
01 20:55 Calm 16.09 Fair CLR 9 -5 37% 76.4 0.0
01 20:35 Calm 16.09 Fair CLR 10 -4 37% 76.4 0.0
01 20:15 Calm 16.09 Fair CLR 13 -5 28% 76.38 0.0
01 19:55 N 7 16.09 Fair CLR 13 -6 26% 76.35 0.0
01 19:35 N 9 16.09 Partly Cloudy SCT110 15 -6 23% 76.35 0.0
01 19:15 NW 9 16.09 Mostly Cloudy BKN110 16 -6 22% 76.33 0.0
01 18:55 NW 15 16.09 Mostly Cloudy BKN110 17 -6 20% 76.33 0.0
01 18:35 N 17 16.09 Partly Cloudy SCT120 17 -6 20% 76.3 0.0
01 18:15 N 17 16.09 Partly Cloudy SCT110 17 -6 20% 76.3 0.0
01 17:55 N 15 16.09 Partly Cloudy SCT110 17 -7 19% 76.3 0.0
01 17:35 NW 20 16.09 Fair CLR 18 -7 18% 76.3 0.0
01 17:15 N 24 G 33 16.09 Partly Cloudy SCT110 18 -7 18% 76.3 0.0
01 16:55 NW 22 G 39 16.09 Fair CLR 19 -7 17% 76.3 0.0
01 16:35 NW 30 G 37 16.09 Partly Cloudy SCT100 18 -7 18% 76.3 0.0
01 16:15 NW 17 G 28 16.09 Partly Cloudy SCT100 19 -7 17% 76.3 0.0
01 15:55 N 9 G 37 16.09 Fair CLR 18 -7 18% 76.3 0.0
01 15:35 NW 17 G 31 16.09 Fair CLR 19 -8 15% 76.33 0.0
01 15:15 NW 26 G 37 16.09 Fair CLR 19 -7 17% 76.35 0.0
01 14:55 N 19 G 31 16.09 Fair CLR 18 -7 18% 76.35 0.0
01 14:35 NW 20 G 35 16.09 Fair CLR 19 -5 19% 76.35 0.0
01 14:15 NW 19 G 33 16.09 Fair CLR 18 -6 19% 76.38 0.0
01 13:55 W 20 G 56 16.09 Partly Cloudy SCT095 18 -5 21% 76.4 0.0
01 13:35 NW 22 G 37 16.09 Fair CLR 18 -5 21% 76.4 0.0
01 13:15 NW 26 G 39 16.09 Partly Cloudy SCT095 18 -5 21% 76.4 0.0
01 12:55 N 20 G 33 16.09 Fair CLR 17 -5 22% 76.4 0.0
01 12:35 NW 24 G 35 16.09 Partly Cloudy SCT090 17 -6 20% 76.4 0.0
01 12:15 W 20 G 46 16.09 Fair CLR 17 -6 20% 76.45 0.0
01 11:55 W 15 G 22 16.09 Partly Cloudy SCT090 16 -6 22% 76.45 0.0
01 11:35 NW 28 G 35 16.09 Fair CLR 17 -5 22% 76.45 0.0
01 11:15 NW 15 G 41 16.09 Partly Cloudy SCT085 15 -5 25% 76.48 0.0
01 10:55 W 19 G 31 16.09 Partly Cloudy SCT085 15 -5 25% 76.48 0.0
01 10:35 NW 19 G 31 16.09 Fair CLR 16 -5 23% 76.48 0.0
01 10:15 NW 26 G 31 16.09 Fair CLR 15 -5 25% 76.48 0.0
01 09:55 NW 20 G 30 16.09 Fair CLR 15 -4 27% 76.48 0.0
01 09:35 NW 20 16.09 Fair CLR 14 -3 31% 76.48 0.0
01 09:15 Calm 16.09 Fair CLR 11 0 47% 76.5 0.0
01 08:55 Calm 16.09 Fair CLR 10 0 50% 76.5 0.0
01 08:35 Calm 16.09 Fair CLR 7 1 66% 76.5 0.0
01 08:15 S 6 16.09 Fair CLR 5 1 76% 76.53 0.0
01 07:55 S 7 16.09 Fair CLR 3 1 87% 1 76.53 0.0
01 07:35 S 9 16.09 Fair CLR 2 1 93% -0 76.53 0.0
01 07:15 Calm 16.09 Fair CLR 1 1 100% 76.53 0.0
01 06:55 SE 9 16.09 Fair CLR 0 0 100% -3 76.48 0.0
01 06:35 S 13 11.27 Fair CLR 0 0 100% -4 76.48 0.0
01 06:15 S 17 16.09 Fair CLR 0 0 100% -4 76.48 0.0
01 05:55 S 13 16.09 Fair CLR -1 -1 100% -5 76.48 0.0
Date Time (mdt) Wind (kph) Vis. (km) Weather Sky Cond. Air Dwpt Max. Min. Relative Humidity Wind Chill (°C) Heat Index (°C) altimeter (cm) sea level (mb) 1 hr 3 hr 6 hr
6 hour
Temperature (ºC) Pressure Precipitation (cm)